createdAt,value
2018-12-08T00:00:13.955Z,119.75
2018-12-08T00:02:47.819Z,133.25
2018-12-08T00:05:20.577Z,129.75
2018-12-08T00:07:52.464Z,130.75
2018-12-08T00:10:24.110Z,134.75
2018-12-08T00:12:56.104Z,145.75
2018-12-08T00:15:28.059Z,138.75
2018-12-08T00:18:00.162Z,139.25
2018-12-08T00:20:32.319Z,140.50
2018-12-08T00:23:04.328Z,134.00
2018-12-08T00:25:36.411Z,125.75
2018-12-08T00:28:08.152Z,113.00
2018-12-08T00:30:49.499Z,112.25
2018-12-08T00:33:21.594Z,114.50
2018-12-08T00:35:53.427Z,109.50
2018-12-08T00:38:25.244Z,115.00
2018-12-08T00:40:56.834Z,113.50
2018-12-08T00:43:29.438Z,112.25
2018-12-08T00:46:01.082Z,123.25
2018-12-08T00:48:32.665Z,115.00
2018-12-08T00:51:04.191Z,128.00
2018-12-08T00:53:36.272Z,126.75
2018-12-08T00:56:07.874Z,122.75
2018-12-08T00:58:40.246Z,123.75
2018-12-08T01:01:11.919Z,118.50
2018-12-08T01:03:44.118Z,114.75
2018-12-08T01:06:16.170Z,114.25
2018-12-08T01:09:06.556Z,121.50
2018-12-08T01:11:40.559Z,126.00
2018-12-08T01:14:12.503Z,131.50
2018-12-08T01:16:44.195Z,139.75
2018-12-08T01:19:16.061Z,144.75
2018-12-08T01:21:48.246Z,155.50
2018-12-08T01:24:22.629Z,177.25
2018-12-08T01:26:54.415Z,174.25
2018-12-08T01:29:26.137Z,156.50
2018-12-08T01:31:58.264Z,150.75
2018-12-08T01:34:30.080Z,154.00
2018-12-08T01:37:02.111Z,150.50
2018-12-08T01:39:34.453Z,161.00
2018-12-08T01:42:07.014Z,153.25
2018-12-08T01:44:39.229Z,160.50
2018-12-08T01:47:10.945Z,160.00
2018-12-08T01:49:43.050Z,164.75
2018-12-08T01:52:15.059Z,171.25
2018-12-08T01:54:47.291Z,165.25
2018-12-08T01:57:19.091Z,159.00
2018-12-08T01:59:52.489Z,152.75
2018-12-08T02:02:24.545Z,181.25
2018-12-08T02:04:56.633Z,157.75
2018-12-08T02:07:29.563Z,143.00
2018-12-08T02:10:01.629Z,150.25
2018-12-08T02:12:34.861Z,162.00
2018-12-08T02:15:07.184Z,152.75
2018-12-08T02:17:39.277Z,167.25
2018-12-08T02:20:11.496Z,156.25
2018-12-08T02:22:43.560Z,174.75
2018-12-08T02:25:15.776Z,171.50
2018-12-08T02:27:47.873Z,173.25
2018-12-08T02:30:19.806Z,173.75
2018-12-08T02:32:51.919Z,179.75
2018-12-08T02:35:24.273Z,178.00
2018-12-08T02:37:56.613Z,178.25
2018-12-08T02:40:28.696Z,179.75
2018-12-08T02:43:00.625Z,179.75
2018-12-08T02:45:32.670Z,194.60
2018-12-08T02:48:04.200Z,198.40
2018-12-08T02:50:36.276Z,196.50
2018-12-08T02:53:08.347Z,197.80
2018-12-08T02:55:40.591Z,194.00
2018-12-08T02:58:12.297Z,189.20
2018-12-08T03:00:44.980Z,179.25
2018-12-08T03:03:16.908Z,192.75
2018-12-08T03:05:49.168Z,181.75
2018-12-08T03:08:21.762Z,195.20
2018-12-08T03:10:54.216Z,187.60
2018-12-08T03:13:27.190Z,203.80
2018-12-08T03:15:59.603Z,197.00
2018-12-08T03:19:34.263Z,207.20
2018-12-08T03:22:06.009Z,207.00
2018-12-08T03:24:37.753Z,196.25
2018-12-08T03:27:09.773Z,225.60
2018-12-08T03:29:41.874Z,219.80
2018-12-08T03:32:13.535Z,224.80
2018-12-08T03:34:45.491Z,224.40
2018-12-08T03:37:17.068Z,217.60
2018-12-08T03:39:49.251Z,223.80
2018-12-08T03:42:21.124Z,220.60
2018-12-08T03:44:53.169Z,212.20
2018-12-08T03:47:25.054Z,217.40
2018-12-08T03:49:57.152Z,213.50
2018-12-08T03:52:30.306Z,204.40
2018-12-08T03:55:01.910Z,214.20
2018-12-08T03:57:35.939Z,214.00
2018-12-08T04:00:08.210Z,215.25
2018-12-08T04:02:40.857Z,215.00
2018-12-08T04:05:13.001Z,205.25
2018-12-08T04:07:45.267Z,223.60
2018-12-08T04:10:17.922Z,205.00
2018-12-08T04:12:49.899Z,232.80
2018-12-08T04:15:21.899Z,231.00
2018-12-08T04:17:54.327Z,220.00
2018-12-08T04:20:26.576Z,231.60
2018-12-08T04:22:58.532Z,224.60
2018-12-08T04:25:30.312Z,210.00
2018-12-08T04:28:02.241Z,213.50
2018-12-08T04:30:34.015Z,209.60
2018-12-08T04:33:05.894Z,199.20
2018-12-08T04:35:37.800Z,180.00
2018-12-08T04:38:10.118Z,191.40
2018-12-08T04:40:42.472Z,173.50
2018-12-08T04:43:14.330Z,167.25
2018-12-08T04:45:46.383Z,167.75
2018-12-08T04:48:19.445Z,178.25
2018-12-08T04:50:52.142Z,189.50
2018-12-08T04:53:24.038Z,177.00
2018-12-08T04:55:56.107Z,174.50
2018-12-08T04:58:28.113Z,189.00
2018-12-08T05:00:59.827Z,185.00
2018-12-08T05:03:32.037Z,183.00
2018-12-08T05:06:03.871Z,183.00
2018-12-08T05:08:36.259Z,177.25
2018-12-08T05:11:08.732Z,170.75
2018-12-08T05:13:40.655Z,170.75
2018-12-08T05:16:12.469Z,171.25
2018-12-08T05:18:44.548Z,167.00
2018-12-08T05:21:16.826Z,177.75
2018-12-08T05:23:49.429Z,169.75
2018-12-08T05:26:21.295Z,187.00
2018-12-08T05:28:53.570Z,166.50
2018-12-08T05:31:25.548Z,174.50
2018-12-08T05:33:57.642Z,169.00
2018-12-08T05:36:29.744Z,169.00
2018-12-08T05:39:01.618Z,159.50
2018-12-08T05:41:37.270Z,156.25
2018-12-08T05:44:09.530Z,159.50
2018-12-08T05:46:41.301Z,159.25
2018-12-08T05:49:13.341Z,156.50
2018-12-08T05:51:45.155Z,155.50
2018-12-08T05:54:17.626Z,180.25
2018-12-08T05:56:49.533Z,184.50
2018-12-08T05:59:21.438Z,169.00
2018-12-08T06:01:53.500Z,168.25
2018-12-08T06:04:25.654Z,177.50
2018-12-08T06:06:57.310Z,180.00
2018-12-08T06:09:29.000Z,171.00
2018-12-08T06:12:01.058Z,166.50
2018-12-08T06:14:33.051Z,153.75
2018-12-08T06:17:05.722Z,135.00
2018-12-08T06:19:37.355Z,117.50
2018-12-08T06:22:09.095Z,113.00
2018-12-08T06:24:42.373Z,110.50
2018-12-08T06:27:22.418Z,92.75
2018-12-08T06:29:58.588Z,93.60
2018-12-08T06:32:31.036Z,94.60
2018-12-08T06:35:02.680Z,92.00
2018-12-08T06:37:34.340Z,95.75
2018-12-08T06:40:06.600Z,103.50
2018-12-08T06:42:38.903Z,102.75
2018-12-08T06:54:39.920Z,109.25
2018-12-08T06:57:11.986Z,119.75
2018-12-08T07:02:44.848Z,113.50
2018-12-08T07:05:18.719Z,112.25
2018-12-08T07:07:50.841Z,108.00
2018-12-08T07:10:22.600Z,108.25
2018-12-08T07:12:54.433Z,105.00
2018-12-08T07:15:26.496Z,90.20
2018-12-08T07:17:58.166Z,94.80
2018-12-08T07:20:30.215Z,94.25
2018-12-08T07:23:02.101Z,91.40
2018-12-08T07:25:34.604Z,104.00
2018-12-08T07:28:06.380Z,101.50
2018-12-08T07:30:38.176Z,98.00
2018-12-08T07:33:10.112Z,99.50
2018-12-08T07:35:43.552Z,89.40
2018-12-08T07:38:15.738Z,88.40
2018-12-08T07:40:50.272Z,87.60
2018-12-08T07:43:22.961Z,88.20
2018-12-08T07:45:54.563Z,87.00
2018-12-08T07:48:27.059Z,85.00
2018-12-08T07:50:58.534Z,90.80
2018-12-08T07:53:30.498Z,89.40
2018-12-08T07:56:05.572Z,89.00
2018-12-08T07:58:37.265Z,84.40
2018-12-08T08:01:09.846Z,81.00
2018-12-08T08:04:02.983Z,79.80
2018-12-08T08:06:36.912Z,84.20
2018-12-08T08:09:20.197Z,85.20
2018-12-08T08:11:53.766Z,81.20
2018-12-08T08:14:26.664Z,82.20
2018-12-08T08:17:04.977Z,84.00
2018-12-08T08:19:39.655Z,77.40
2018-12-08T08:22:11.069Z,83.00
2018-12-08T08:24:42.722Z,85.00
2018-12-08T08:27:14.282Z,74.20
2018-12-08T08:29:50.945Z,69.60
2018-12-08T08:32:22.683Z,63.00
2018-12-08T08:34:54.361Z,67.00
2018-12-08T08:37:27.361Z,70.40
2018-12-08T08:43:02.592Z,75.20
2018-12-08T08:45:34.073Z,78.80
2018-12-08T08:48:05.717Z,74.40
2018-12-08T08:50:39.661Z,73.60
2018-12-08T08:53:11.344Z,64.60
2018-12-08T08:55:51.903Z,69.20
2018-12-08T09:01:26.539Z,70.40
2018-12-08T09:03:59.313Z,63.60
2018-12-08T09:06:40.022Z,66.20
2018-12-08T09:09:20.665Z,70.40
2018-12-08T09:12:09.297Z,63.20
2018-12-08T09:14:44.209Z,67.80
2018-12-08T09:17:32.276Z,68.20
2018-12-08T09:20:04.798Z,65.80
2018-12-08T09:25:34.313Z,65.00
2018-12-08T09:28:06.005Z,63.00
2018-12-08T09:30:37.613Z,61.60
2018-12-08T09:33:09.282Z,61.60
2018-12-08T09:35:42.682Z,69.20
2018-12-08T09:38:16.406Z,60.40
2018-12-08T09:44:01.980Z,67.00
2018-12-08T09:46:33.494Z,65.40
2018-12-08T09:49:05.100Z,66.40
2018-12-08T09:51:36.685Z,65.80
2018-12-08T09:54:08.391Z,71.00
2018-12-08T09:56:51.069Z,65.20
2018-12-08T09:59:22.579Z,58.60
2018-12-08T10:01:54.128Z,64.00
2018-12-08T10:04:26.428Z,64.60
2018-12-08T10:06:58.845Z,64.00
2018-12-08T10:09:33.700Z,60.20
2018-12-08T10:12:14.711Z,63.40
2018-12-08T10:17:53.912Z,57.60
2018-12-08T10:20:43.710Z,60.60
2018-12-08T10:23:23.033Z,67.80
2018-12-08T10:26:01.645Z,64.80
2018-12-08T10:28:33.670Z,63.80
2018-12-08T10:31:05.239Z,64.60
2018-12-08T10:33:52.848Z,59.20
2018-12-08T10:36:28.515Z,66.20
2018-12-08T10:39:10.404Z,65.80
2018-12-08T10:41:41.923Z,65.80
2018-12-08T10:44:16.389Z,64.00
2018-12-08T10:47:00.008Z,64.40
2018-12-08T10:49:32.674Z,70.80
2018-12-08T10:52:09.031Z,67.60
2018-12-08T10:54:47.244Z,70.40
2018-12-08T10:57:22.406Z,64.00
2018-12-08T11:03:08.800Z,66.40
2018-12-08T11:05:40.209Z,75.00
2018-12-08T11:08:12.232Z,71.40
2018-12-08T11:10:44.099Z,68.80
2018-12-08T11:13:17.803Z,73.80
2018-12-08T11:15:50.372Z,72.60
2018-12-08T11:18:21.949Z,72.00
2018-12-08T11:20:53.428Z,69.40
2018-12-08T11:23:25.336Z,67.20
2018-12-08T11:25:58.432Z,64.60
2018-12-08T11:28:31.041Z,67.40
2018-12-08T11:31:06.493Z,60.00
2018-12-08T11:33:37.976Z,62.80
2018-12-08T11:36:09.587Z,68.60
2018-12-08T11:38:42.360Z,65.60
2018-12-08T11:41:14.835Z,56.40
2018-12-08T11:43:47.339Z,65.00
2018-12-08T11:46:19.240Z,67.80
2018-12-08T11:48:50.913Z,74.60
2018-12-08T11:51:22.352Z,67.40
2018-12-08T11:56:58.842Z,73.20
2018-12-08T11:59:30.429Z,67.80
2018-12-08T12:02:02.146Z,73.80
2018-12-08T12:04:33.769Z,69.60
2018-12-08T12:07:05.358Z,73.40
2018-12-08T12:09:40.876Z,68.20
2018-12-08T12:12:12.505Z,70.60
2018-12-08T12:14:49.654Z,77.00
2018-12-08T12:17:23.536Z,73.20
2018-12-08T12:19:55.150Z,77.40
2018-12-08T12:22:26.941Z,74.40
2018-12-08T12:25:03.739Z,79.40
2018-12-08T12:27:35.667Z,76.40
2018-12-08T12:30:08.533Z,73.80
2018-12-08T12:32:41.351Z,72.40
2018-12-08T12:35:14.888Z,71.20
2018-12-08T12:37:46.592Z,72.80
2018-12-08T12:40:28.466Z,82.20
2018-12-08T12:43:01.131Z,75.20
2018-12-08T12:45:33.995Z,83.20
2018-12-08T12:48:11.126Z,84.80
2018-12-08T12:50:43.667Z,82.80
2018-12-08T12:53:15.376Z,83.40
2018-12-08T12:55:46.995Z,90.20
2018-12-08T12:58:25.130Z,82.60
2018-12-08T13:01:05.543Z,84.00
2018-12-08T13:03:40.796Z,88.80
2018-12-08T13:06:25.364Z,93.60
2018-12-08T13:08:56.986Z,94.00
2018-12-08T13:11:30.046Z,99.60
2018-12-08T13:14:01.817Z,87.40
2018-12-08T13:16:34.399Z,101.00
2018-12-08T13:19:06.737Z,101.00
2018-12-08T13:21:38.330Z,93.60
2018-12-08T13:24:10.018Z,97.80
2018-12-08T13:26:41.593Z,99.40
2018-12-08T13:29:13.244Z,101.25
2018-12-08T13:31:56.943Z,93.50
2018-12-08T13:34:30.927Z,104.25
2018-12-08T13:37:08.695Z,101.25
2018-12-08T13:39:40.462Z,104.50
2018-12-08T13:42:12.630Z,118.50
2018-12-08T13:44:44.327Z,117.00
2018-12-08T13:47:15.913Z,112.00
2018-12-08T13:49:58.363Z,112.75
2018-12-08T13:52:33.719Z,115.00
2018-12-08T13:55:10.624Z,113.50
2018-12-08T13:57:43.353Z,119.75
2018-12-08T14:00:18.334Z,133.00
2018-12-08T14:02:49.902Z,146.25
2018-12-08T14:05:21.557Z,156.00
2018-12-08T14:07:53.059Z,160.75
2018-12-08T14:10:24.753Z,161.75
2018-12-08T14:12:57.238Z,168.25
2018-12-08T14:15:29.011Z,164.75
2018-12-08T14:18:00.622Z,175.25
2018-12-08T14:20:34.771Z,178.00
2018-12-08T14:23:06.461Z,183.00
2018-12-08T14:25:38.128Z,189.80
2018-12-08T14:28:10.729Z,184.75
2018-12-08T14:30:42.298Z,181.60
2018-12-08T14:33:15.316Z,188.00
2018-12-08T14:35:47.361Z,186.60
2018-12-08T14:38:18.920Z,198.00
2018-12-08T14:40:51.610Z,202.20
2018-12-08T14:43:24.022Z,197.60
2018-12-08T14:45:55.779Z,194.60
2018-12-08T14:48:27.237Z,193.00
2018-12-08T14:51:00.464Z,191.20
2018-12-08T14:53:32.054Z,200.20
2018-12-08T14:56:03.840Z,190.40
2018-12-08T14:58:35.484Z,191.80
2018-12-08T15:01:07.215Z,202.40
2018-12-08T15:03:38.738Z,203.40
2018-12-08T15:06:11.476Z,195.40
2018-12-08T15:08:43.257Z,189.60
2018-12-08T15:11:15.087Z,195.75
2018-12-08T15:13:46.679Z,204.50
2018-12-08T15:16:18.403Z,209.75
2018-12-08T15:18:49.960Z,210.75
2018-12-08T15:21:22.372Z,219.00
2018-12-08T15:23:54.892Z,205.80
2018-12-08T15:26:26.529Z,208.00
2018-12-08T15:29:01.229Z,259.60
2018-12-08T15:31:37.584Z,207.00
2018-12-08T15:34:09.056Z,211.50
2018-12-08T15:36:40.804Z,221.60
2018-12-08T15:39:17.979Z,219.00
2018-12-08T15:41:50.626Z,212.20
2018-12-08T15:44:23.056Z,219.20
2018-12-08T15:46:54.623Z,227.00
2018-12-08T15:49:26.189Z,222.60
2018-12-08T15:51:59.859Z,225.00
2018-12-08T15:54:33.527Z,213.60
2018-12-08T15:57:05.224Z,222.40
2018-12-08T15:59:37.640Z,218.80
2018-12-08T16:02:10.210Z,223.00
2018-12-08T16:04:42.725Z,247.67
2018-12-08T16:07:19.183Z,222.40
2018-12-08T16:10:01.219Z,210.80
2018-12-08T16:12:33.359Z,210.00
2018-12-08T16:15:06.657Z,206.80
2018-12-08T16:17:38.544Z,223.25
2018-12-08T16:20:14.421Z,215.00
2018-12-08T16:22:49.795Z,224.20
2018-12-08T16:25:22.290Z,224.20
2018-12-08T16:27:58.802Z,213.00
2018-12-08T16:30:30.355Z,221.60
2018-12-08T16:33:02.963Z,225.20
2018-12-08T16:35:37.794Z,226.20
2018-12-08T16:38:10.312Z,229.40
2018-12-08T16:40:42.653Z,236.20
2018-12-08T16:43:19.689Z,222.80
2018-12-08T16:45:51.459Z,228.20
2018-12-08T16:48:23.678Z,224.20
2018-12-08T16:50:55.253Z,231.60
2018-12-08T16:53:27.409Z,221.20
2018-12-08T16:55:59.210Z,225.80
2018-12-08T16:58:32.163Z,226.40
2018-12-08T17:01:03.788Z,226.80
2018-12-08T17:03:37.455Z,222.60
2018-12-08T17:06:11.159Z,221.60
2018-12-08T17:08:48.491Z,224.60
2018-12-08T17:11:20.977Z,222.40
2018-12-08T17:13:52.625Z,217.60
2018-12-08T17:16:28.225Z,219.20
2018-12-08T17:19:00.935Z,221.20
2018-12-08T17:21:32.844Z,215.60
2018-12-08T17:24:05.084Z,221.60
2018-12-08T17:26:36.826Z,220.00
2018-12-08T17:29:08.485Z,230.40
2018-12-08T17:31:40.960Z,226.40
2018-12-08T17:34:12.554Z,224.40
2018-12-08T17:36:44.257Z,231.40
2018-12-08T17:39:16.068Z,228.00
2018-12-08T17:41:48.705Z,228.20
2018-12-08T17:44:21.169Z,227.00
2018-12-08T17:46:52.723Z,230.20
2018-12-08T17:49:24.636Z,221.20
2018-12-08T17:51:56.440Z,231.20
2018-12-08T17:54:28.466Z,209.40
2018-12-08T17:57:00.054Z,235.20
2018-12-08T17:59:31.603Z,228.80
2018-12-08T18:02:03.213Z,215.80
2018-12-08T18:04:34.671Z,225.80
2018-12-08T18:07:06.239Z,231.00
2018-12-08T18:09:38.375Z,227.80
2018-12-08T18:12:09.956Z,229.60
2018-12-08T18:14:41.746Z,237.00
2018-12-08T18:17:13.252Z,229.00
2018-12-08T18:19:44.720Z,232.80
2018-12-08T18:22:16.578Z,221.00
2018-12-08T18:24:48.966Z,238.20
2018-12-08T18:27:21.634Z,218.60
2018-12-08T18:29:53.338Z,228.00
2018-12-08T18:32:26.896Z,212.60
2018-12-08T18:34:58.490Z,221.00
2018-12-08T18:37:30.232Z,210.20
2018-12-08T18:40:02.854Z,217.50
2018-12-08T18:42:34.399Z,213.00
2018-12-08T18:45:06.263Z,209.50
2018-12-08T18:47:41.211Z,210.25
2018-12-08T18:50:13.142Z,217.00
2018-12-08T18:52:44.811Z,215.50
2018-12-08T18:55:16.656Z,203.00
2018-12-08T18:57:48.311Z,222.50
2018-12-08T19:00:19.984Z,211.20
2018-12-08T19:02:51.664Z,214.60
2018-12-08T19:05:23.382Z,215.20
2018-12-08T19:07:55.224Z,201.60
2018-12-08T19:10:30.519Z,209.00
2018-12-08T19:13:02.229Z,209.40
2018-12-08T19:15:37.940Z,213.00
2018-12-08T19:18:09.557Z,210.60
2018-12-08T19:20:41.468Z,198.60
2018-12-08T19:23:13.051Z,196.80
2018-12-08T19:25:45.088Z,205.80
2018-12-08T19:28:16.718Z,190.80
2018-12-08T19:30:48.388Z,208.20
2018-12-08T19:33:23.166Z,206.00
2018-12-08T19:35:58.599Z,214.60
2018-12-08T19:38:30.143Z,197.80
2018-12-08T19:41:01.690Z,197.00
2018-12-08T19:43:33.291Z,196.00
2018-12-08T19:46:12.649Z,196.80
2018-12-08T19:48:47.608Z,197.40
2018-12-08T19:51:20.269Z,197.00
2018-12-08T19:53:52.772Z,203.60
2018-12-08T19:56:25.825Z,198.60
2018-12-08T19:58:58.350Z,199.80
2018-12-08T20:01:30.993Z,201.20
2018-12-08T20:04:02.495Z,196.00
2018-12-08T20:06:35.253Z,193.60
2018-12-08T20:09:07.915Z,187.40
2018-12-08T20:11:40.011Z,188.20
2018-12-08T20:14:12.598Z,180.25
2018-12-08T20:16:47.891Z,186.00
2018-12-08T20:19:20.711Z,178.50
2018-12-08T20:21:54.408Z,176.25
2018-12-08T20:24:26.171Z,171.50
2018-12-08T20:26:59.486Z,162.50
2018-12-08T20:29:33.396Z,168.50
2018-12-08T20:32:06.739Z,178.50
2018-12-08T20:34:38.351Z,167.00
2018-12-08T20:37:11.088Z,179.75
2018-12-08T20:39:42.578Z,174.50
2018-12-08T20:42:14.202Z,184.25
2018-12-08T20:44:45.794Z,165.75
2018-12-08T20:47:17.370Z,182.75
2018-12-08T20:49:48.837Z,165.00
2018-12-08T20:52:21.615Z,188.25
2018-12-08T20:54:53.567Z,174.00
2018-12-08T20:57:26.006Z,178.50
2018-12-08T20:59:58.144Z,179.75
2018-12-08T21:02:29.916Z,176.00
2018-12-08T21:07:44.556Z,171.00
2018-12-08T21:10:16.118Z,168.00
2018-12-08T21:12:47.805Z,171.25
2018-12-08T21:15:19.343Z,173.25
2018-12-08T21:17:51.140Z,171.75
2018-12-08T21:20:22.690Z,164.25
2018-12-08T21:22:54.525Z,173.75
2018-12-08T21:25:26.201Z,158.25
2018-12-08T21:27:58.601Z,162.25
2018-12-08T21:30:30.022Z,163.50
2018-12-08T21:33:01.694Z,166.75
2018-12-08T21:35:33.574Z,171.50
2018-12-08T21:38:06.492Z,157.25
2018-12-08T21:40:38.531Z,165.50
2018-12-08T21:43:10.119Z,165.25
2018-12-08T21:45:41.870Z,155.25
2018-12-08T21:48:13.827Z,163.00
2018-12-08T21:50:45.625Z,167.75
2018-12-08T21:53:17.502Z,149.25
2018-12-08T21:55:50.170Z,159.00
2018-12-08T21:58:22.569Z,164.75
2018-12-08T22:00:54.533Z,164.00
2018-12-08T22:03:26.283Z,156.75
2018-12-08T22:05:57.682Z,166.00
2018-12-08T22:08:29.320Z,159.00
2018-12-08T22:11:00.955Z,158.75
2018-12-08T22:13:33.126Z,160.75
2018-12-08T22:16:04.558Z,157.25
2018-12-08T22:18:36.100Z,149.25
2018-12-08T22:21:07.705Z,151.25
2018-12-08T22:23:39.288Z,148.50
2018-12-08T22:26:10.890Z,160.50
2018-12-08T22:28:42.747Z,161.00
2018-12-08T22:31:14.318Z,152.00
2018-12-08T22:33:46.114Z,139.25
2018-12-08T22:36:17.529Z,158.50
2018-12-08T22:38:49.901Z,163.00
2018-12-08T22:41:21.881Z,161.50
2018-12-08T22:43:53.634Z,155.25
2018-12-08T22:46:25.411Z,148.00
2018-12-08T22:48:57.499Z,152.50
2018-12-08T22:51:28.964Z,161.50
2018-12-08T22:54:00.590Z,153.25
2018-12-08T22:56:32.152Z,140.50
2018-12-08T22:59:04.364Z,155.25
2018-12-08T23:01:35.837Z,158.75
2018-12-08T23:04:07.515Z,156.75
2018-12-08T23:06:38.870Z,152.75
2018-12-08T23:09:10.740Z,166.00
2018-12-08T23:11:44.599Z,156.75
2018-12-08T23:14:16.079Z,155.25
2018-12-08T23:16:47.887Z,154.00
2018-12-08T23:19:19.374Z,153.75
2018-12-08T23:21:51.395Z,156.00
2018-12-08T23:24:23.122Z,148.75
2018-12-08T23:26:54.541Z,147.50
2018-12-08T23:29:27.079Z,157.75
2018-12-08T23:31:58.924Z,151.00
2018-12-08T23:34:31.011Z,146.75
2018-12-08T23:37:02.695Z,161.00
2018-12-08T23:39:39.190Z,157.25
2018-12-08T23:42:10.696Z,159.75
2018-12-08T23:44:42.459Z,153.25
2018-12-08T23:47:14.111Z,145.75
2018-12-08T23:49:46.769Z,151.00
2018-12-08T23:52:18.669Z,148.25
2018-12-08T23:54:50.746Z,152.00
2018-12-08T23:57:22.556Z,153.25
2018-12-08T23:59:55.167Z,144.00
